Latest Coastal Weather Observations for Cape Jaffa

IDS60701

Issued at 1:15 am CDT Saturday 25 October 2014 (issued every 10 minutes, with the page automatically refreshed every 10 minutes)

About coastal observations | Map of coastal stations | Coastal observations for SA | Marine services | Other Formats
Station Details ID: 026095 Name: THE LIMESTONE Lat: -36.97 Lon: 139.72 Height: 17.0 m
Data from the previous 72 hours. | See also: Recent months at Cape Jaffa
Date/Time
CDT
Temp

°C
Wind Pressure Rain
since 9am
mm
Weather Cloud Vis
km
Sea
Height
m
Swell
Dir
 
Speed
knots
Gust
knots
hPa Trend Height
m
Period
s
Dir
25/01:00am 14.0 SSE 9 13 1016.6 - 0.0 - - - - - - -
25/12:30am 14.3 SSE 10 14 1016.6 - 0.0 - - - - - - -
25/12:00am 14.4 S 10 12 1016.6 - 0.0 - - - - - - -
 
Date/Time
CDT
Temp

°C
Wind Pressure Rain
since 9am
mm
Weather Cloud Vis
km
Sea
Height
m
Swell
Dir
 
Speed
knots
Gust
knots
hPa Trend Height
m
Period
s
Dir
24/11:30pm 14.4 SSE 7 10 1016.6 - 0.0 - - - - - - -
24/11:00pm 14.2 S 9 13 1016.7 - 0.0 - - - - - - -
24/10:30pm 13.4 S 8 10 1016.6 - 0.0 - - - - - - -
24/10:00pm 13.1 SSE 6 8 1016.6 - 0.0 - - - - - - -
24/09:30pm 13.7 SSE 7 9 1016.4 - 0.0 - - - - - - -
24/09:00pm 13.6 S 6 8 1016.3 - 0.0 - - - - - - -
24/08:30pm 13.6 S 7 8 1015.9 - 0.0 - - - - - - -
24/08:00pm 14.3 S 8 10 1015.4 - 0.0 - - - - - - -
24/07:30pm 14.9 SSW 8 11 1015.1 - 0.0 - - - - - - -
24/07:00pm 15.9 SSW 9 12 1014.8 - 0.0 - - - - - - -
24/06:30pm 16.2 SSW 12 15 1014.5 - 0.0 - - - - - - -
24/06:00pm 16.8 SW 11 15 1014.4 - 0.0 - - - - - - -
24/05:30pm 17.1 SW 9 12 1014.1 - 0.0 - - - - - - -
24/05:00pm 17.5 SW 11 14 1014.0 - 0.0 - - - - - - -
24/04:30pm 18.6 WSW 10 13 1013.7 - 0.0 - - - - - - -
24/04:00pm 18.3 W 10 15 1014.0 - 0.0 - - - - - - -
24/03:30pm 18.6 W 8 15 1013.9 - 0.0 - - - - - - -
24/03:00pm 19.7 WNW 7 13 1013.8 - 0.0 - - - - - - -
24/02:30pm 18.6 NNW 8 14 1013.8 - 0.0 - - - - - - -
24/02:00pm 18.5 NNW 8 12 1013.9 - 0.0 - - - - - - -
24/01:30pm 17.4 NNW 7 11 1013.9 - 0.0 - - - - - - -
24/01:00pm 18.2 NNW 9 12 1014.0 - 0.0 - - - - - - -
24/12:30pm 18.9 WNW 9 13 1014.0 - 0.0 - - - - - - -
24/12:00pm 18.6 WNW 8 11 1014.4 - 0.0 - - - - - - -
24/11:30am 17.9 W 8 12 1014.3 - 0.0 - - - - - - -
24/11:00am 17.4 W 7 11 1014.5 - 0.0 - - - - - - -
24/10:30am 16.5 W 8 12 1014.4 - 0.0 - - - - - - -
24/10:00am 16.4 W 9 13 1014.5 - 0.0 - - - - - - -
24/09:30am 15.5 W 11 16 1014.1 - 0.0 - - - - - - -
24/09:00am 15.0 WNW 10 13 1014.5 - 0.0 - - - - - - -
24/08:30am 14.2 WNW 11 14 1014.2 - 0.0 - - - - - - -
24/08:00am 13.9 WNW 9 13 1013.5 - 0.0 - - - - - - -
24/07:30am 13.9 WNW 3 5 1012.5 - 0.0 - - - - - - -
24/07:00am 13.8 WNW 5 7 1012.3 - 0.0 - - - - - - -
24/06:30am 13.7 W 4 6 1011.9 - 0.0 - - - - - - -
24/06:00am 13.7 W 5 7 1012.0 - 0.0 - - - - - - -
24/05:30am 13.8 WNW 6 9 1012.2 - 0.0 - - - - - - -
24/05:00am 13.9 WNW 6 9 1012.0 - 0.0 - - - - - - -
24/04:30am 11.6 WNW 3 4 1011.7 - 0.0 - - - - - - -
24/04:00am 9.4 N 1 3 1011.6 - 0.0 - - - - - - -
24/03:30am 10.9 N 2 3 1011.6 - 0.0 - - - - - - -
24/03:00am 9.5 CALM 0 0 1012.2 - 0.0 - - - - - - -
24/02:30am 10.6 NE 3 4 1012.0 - 0.0 - - - - - - -
24/02:00am 11.1 E 1 4 1012.4 - 0.0 - - - - - - -
24/01:30am 12.2 SSW 1 2 1013.2 - 0.0 - - - - - - -
24/01:00am 11.4 SW 3 4 1013.5 - 0.0 - - - - - - -
24/12:30am 11.4 S 3 4 1013.4 - 0.0 - - - - - - -
24/12:00am 12.5 SSE 3 4 1013.8 - 0.0 - - - - - - -
 
Date/Time
CDT
Temp

°C
Wind Pressure Rain
since 9am
mm
Weather Cloud Vis
km
Sea
Height
m
Swell
Dir
 
Speed
knots
Gust
knots
hPa Trend Height
m
Period
s
Dir
23/11:30pm 12.6 SSE 4 5 1014.0 - 0.0 - - - - - - -
23/11:00pm 13.3 SSE 5 7 1014.3 - 0.0 - - - - - - -
23/10:30pm 13.1 S 6 7 1014.4 - 0.0 - - - - - - -
23/10:00pm 14.0 SSE 6 8 1014.5 - 0.0 - - - - - - -
23/09:30pm 14.3 S 7 9 1014.6 - 0.0 - - - - - - -
23/09:00pm 14.7 SSE 8 11 1014.2 - 0.0 - - - - - - -
23/08:30pm 14.9 S 8 9 1014.0 - 0.0 - - - - - - -
23/08:00pm 15.4 S 8 10 1013.9 - 0.0 - - - - - - -
23/07:30pm 15.7 S 9 12 1013.7 - 0.0 - - - - - - -
23/07:00pm 16.4 S 14 17 1013.9 - 0.0 - - - - - - -
23/06:30pm 17.2 S 12 16 1013.7 - 0.0 - - - - - - -
23/06:00pm 17.1 S 15 18 1013.6 - 0.0 - - - - - - -
23/05:30pm 18.3 S 16 19 1013.7 - 0.0 - - - - - - -
23/05:00pm 18.2 S 18 21 1013.9 - 0.0 - - - - - - -
23/04:30pm 18.7 S 20 24 1014.1 - 0.0 - - - - - - -
23/04:00pm 19.3 S 20 23 1014.1 - 0.0 - - - - - - -
23/03:30pm 19.5 S 18 22 1014.1 - 0.0 - - - - - - -
23/03:00pm 19.2 S 19 22 1014.3 - 0.0 - - - - - - -
23/02:30pm 20.3 SSW 18 21 1014.8 - 0.0 - - - - - - -
23/02:00pm 20.9 SSW 13 18 1015.1 - 0.0 - - - - - - -
23/01:30pm 22.2 SSE 9 15 1015.5 - 0.0 - - - - - - -
23/01:00pm 21.7 SSE 11 15 1016.0 - 0.0 - - - - - - -
23/12:30pm 21.6 SSE 9 16 1016.5 - 0.0 - - - - - - -
23/12:00pm 20.2 SSE 10 15 1017.0 - 0.0 - - - - - - -
23/11:30am 19.3 SSE 11 16 1017.4 - 0.0 - - - - - - -
23/11:00am 18.1 SSE 12 18 1017.9 - 0.0 - - - - - - -
23/10:30am 17.0 SSE 12 17 1018.1 - 0.0 - - - - - - -
23/10:00am 16.5 ESE 13 17 1018.4 - 0.0 - - - - - - -
23/09:30am 16.3 SSE 11 14 1018.5 - 0.0 - - - - - - -
23/09:00am 14.8 SE 12 18 1018.6 - 0.0 - - - - - - -
23/08:30am 14.4 SE 13 18 1018.9 - 0.0 - - - - - - -
23/08:00am 13.9 SE 12 18 1019.0 - 0.0 - - - - - - -
23/07:30am 13.5 SE 13 19 1018.8 - 0.0 - - - - - - -
23/07:00am 13.3 SE 15 20 1018.7 - 0.0 - - - - - - -
23/06:30am 13.3 SSE 15 24 1018.7 - 0.0 - - - - - - -
23/06:00am 13.3 SSE 15 20 1018.5 - 0.0 - - - - - - -
23/05:30am 13.2 SSE 13 19 1018.4 - 0.0 - - - - - - -
23/05:00am 13.0 SSE 14 22 1018.4 - 0.0 - - - - - - -
23/04:30am 13.0 SSE 12 17 1018.5 - 0.0 - - - - - - -
23/04:00am 13.1 SSE 13 19 1018.7 - 0.0 - - - - - - -
23/03:30am 13.1 SSE 15 23 1018.6 - 0.0 - - - - - - -
23/03:00am 13.2 SSE 14 20 1018.8 - 0.0 - - - - - - -
23/02:30am 13.4 SSE 15 21 1018.8 - 0.0 - - - - - - -
23/02:00am 13.5 SSE 14 20 1019.0 - 0.0 - - - - - - -
23/01:30am 13.8 SSE 13 20 1019.3 - 0.0 - - - - - - -
23/01:00am 13.8 SSE 13 19 1019.6 - 0.0 - - - - - - -
23/12:30am 13.6 SSE 14 20 1019.7 - 0.0 - - - - - - -
23/12:00am 13.8 SSE 14 21 1019.8 - 0.0 - - - - - - -
 
Date/Time
CDT
Temp

°C
Wind Pressure Rain
since 9am
mm
Weather Cloud Vis
km
Sea
Height
m
Swell
Dir
 
Speed
knots
Gust
knots
hPa Trend Height
m
Period
s
Dir
22/11:30pm 14.1 SSE 12 19 1020.0 - 0.0 - - - - - - -
22/11:00pm 14.0 S 15 20 1020.1 - 0.0 - - - - - - -
22/10:30pm 14.2 SSE 15 21 1020.1 - 0.0 - - - - - - -
22/10:00pm 14.4 SSE 14 20 1020.0 - 0.0 - - - - - - -
22/09:30pm 14.6 SSE 14 19 1020.0 - 0.0 - - - - - - -
22/09:00pm 14.7 SSE 18 27 1019.9 - 0.0 - - - - - - -
22/08:53pm 14.6 SSE 16 27 1019.7 - 0.0 - - - - - - -
22/08:30pm 14.6 SSE 16 23 1019.5 - 0.0 - - - - - - -
22/08:13pm 14.5 S 17 28 1019.1 - 0.0 - - - - - - -
22/08:00pm 14.4 S 20 28 1018.8 - 0.0 - - - - - - -
22/07:30pm 14.3 S 21 27 1018.5 - 0.0 - - - - - - -
22/07:00pm 14.4 S 22 29 1018.1 - 0.0 - - - - - - -
22/06:43pm 14.5 S 20 30 1018.1 - 0.0 - - - - - - -
22/06:30pm 14.7 S 23 29 1017.8 - 0.0 - - - - - - -
22/06:00pm 15.2 S 21 28 1017.6 - 0.0 - - - - - - -
22/05:30pm 15.4 S 23 28 1017.4 - 0.0 - - - - - - -
22/05:00pm 15.9 S 24 28 1017.2 - 0.0 - - - - - - -
22/04:30pm 16.9 S 22 28 1017.1 - 0.0 - - - - - - -
22/04:00pm 16.8 S 23 29 1017.1 - 0.0 - - - - - - -
22/03:30pm 16.9 S 23 28 1017.1 - 0.0 - - - - - - -
22/03:00pm 17.2 S 25 30 1017.1 - 0.0 - - - - - - -
22/02:30pm 17.9 S 24 30 1017.0 - 0.0 - - - - - - -
22/02:00pm 17.7 S 23 28 1017.3 - 0.0 - - - - - - -
22/01:30pm 18.6 S 24 28 1017.4 - 0.0 - - - - - - -
22/01:00pm 18.5 S 25 29 1017.2 - 0.0 - - - - - - -
22/12:30pm 18.5 SSW 24 29 1016.8 - 0.0 - - - - - - -
22/12:00pm 18.5 SSW 23 27 1016.9 - 0.0 - - - - - - -
22/11:30am 19.0 SSW 17 22 1016.8 - 0.0 - - - - - - -
22/11:00am 19.7 SSW 15 19 1016.8 - 0.0 - - - - - - -
22/10:30am 20.1 S 12 15 1017.0 - 0.0 - - - - - - -
22/10:00am 19.4 SSW 12 16 1017.2 - 0.0 - - - - - - -
22/09:30am 21.3 S 9 12 1016.9 - 0.0 - - - - - - -
22/09:00am 21.9 SW 9 12 1017.1 - 0.0 - - - - - - -
22/08:30am 22.4 E 7 10 1016.6 - 0.0 - - - - - - -
22/08:00am 21.1 ENE 6 7 1016.3 - 0.0 - - - - - - -
22/07:30am 20.9 E 8 10 1015.8 - 0.0 - - - - - - -
22/07:00am 18.7 E 8 9 1015.8 - 0.0 - - - - - - -
22/06:30am 16.8 E 9 10 1015.8 - 0.0 - - - - - - -
22/06:00am 16.8 E 9 10 1015.7 - 0.0 - - - - - - -
22/05:30am 17.5 ENE 8 10 1015.6 - 0.0 - - - - - - -
22/05:00am 17.7 ENE 9 9 1015.6 - 0.0 - - - - - - -
22/04:30am 19.1 NE 6 7 1015.9 - 0.0 - - - - - - -
22/04:00am 20.2 NNE 6 7 1016.2 - 0.0 - - - - - - -
22/03:30am 19.7 N 7 8 1016.4 - 0.0 - - - - - - -
22/03:00am 21.5 N 5 7 1016.6 - 0.0 - - - - - - -
22/02:30am 22.4 N 9 12 1017.0 - 0.0 - - - - - - -
22/02:00am 21.3 NW 9 14 1017.6 - 0.0 - - - - - - -
22/01:54am 20.7 WNW 10 17 1017.5 - 0.0 - - - - - - -
22/01:30am 15.6 N 4 9 1017.3 - 0.0 - - - - - - -

Other Formats:

Comma delimited format used in spreadsheet applications
http://www.bom.gov.au/fwo/IDS60701/IDS60701.94813.axf

JavaScript Object Notation format (JSON) in row-major order
http://www.bom.gov.au/fwo/IDS60701/IDS60701.94813.json